sensor_id;sensor_type;location;lat;lon;timestamp;temperature;humidity
26224;DHT22;14820;48.682;8.890;2022-10-31T00:01:36;10.50;99.90
26224;DHT22;14820;48.682;8.890;2022-10-31T00:04:02;10.50;99.90
26224;DHT22;14820;48.682;8.890;2022-10-31T00:06:28;10.50;99.90
26224;DHT22;14820;48.682;8.890;2022-10-31T00:08:57;10.50;99.90
26224;DHT22;14820;48.682;8.890;2022-10-31T00:11:24;10.50;99.90
26224;DHT22;14820;48.682;8.890;2022-10-31T00:13:50;10.50;99.90
26224;DHT22;14820;48.682;8.890;2022-10-31T00:16:17;10.40;99.90
26224;DHT22;14820;48.682;8.890;2022-10-31T00:18:44;10.40;99.90
26224;DHT22;14820;48.682;8.890;2022-10-31T00:21:12;10.40;99.90
26224;DHT22;14820;48.682;8.890;2022-10-31T00:23:38;10.30;99.90
26224;DHT22;14820;48.682;8.890;2022-10-31T00:26:04;10.30;99.90
26224;DHT22;14820;48.682;8.890;2022-10-31T00:28:31;10.20;99.90
26224;DHT22;14820;48.682;8.890;2022-10-31T00:31:06;10.20;99.90
26224;DHT22;14820;48.682;8.890;2022-10-31T00:33:34;10.10;99.90
26224;DHT22;14820;48.682;8.890;2022-10-31T00:36:00;10.10;99.90
26224;DHT22;14820;48.682;8.890;2022-10-31T00:38:26;10.10;99.90
26224;DHT22;14820;48.682;8.890;2022-10-31T00:40:51;10.10;99.90
26224;DHT22;14820;48.682;8.890;2022-10-31T00:43:17;10.10;99.90
26224;DHT22;14820;48.682;8.890;2022-10-31T00:45:43;10.10;99.90
26224;DHT22;14820;48.682;8.890;2022-10-31T00:48:09;10.00;99.90
26224;DHT22;14820;48.682;8.890;2022-10-31T00:50:35;10.00;99.90
26224;DHT22;14820;48.682;8.890;2022-10-31T00:53:01;10.00;99.90
26224;DHT22;14820;48.682;8.890;2022-10-31T00:55:27;10.00;99.90
26224;DHT22;14820;48.682;8.890;2022-10-31T00:57:52;9.90;99.90
26224;DHT22;14820;48.682;8.890;2022-10-31T01:00:18;9.90;99.90
26224;DHT22;14820;48.682;8.890;2022-10-31T01:02:44;10.00;99.90
26224;DHT22;14820;48.682;8.890;2022-10-31T01:05:09;10.00;99.90
26224;DHT22;14820;48.682;8.890;2022-10-31T01:07:36;10.00;99.90
26224;DHT22;14820;48.682;8.890;2022-10-31T01:10:03;9.90;99.90
26224;DHT22;14820;48.682;8.890;2022-10-31T01:12:30;9.90;99.90
26224;DHT22;14820;48.682;8.890;2022-10-31T01:14:55;9.90;99.90
26224;DHT22;14820;48.682;8.890;2022-10-31T01:17:21;9.90;99.90
26224;DHT22;14820;48.682;8.890;2022-10-31T01:19:46;9.80;99.90
26224;DHT22;14820;48.682;8.890;2022-10-31T01:22:12;9.80;99.90
26224;DHT22;14820;48.682;8.890;2022-10-31T01:24:38;9.80;99.90
26224;DHT22;14820;48.682;8.890;2022-10-31T01:27:03;9.70;99.90
26224;DHT22;14820;48.682;8.890;2022-10-31T01:29:29;9.70;99.90
26224;DHT22;14820;48.682;8.890;2022-10-31T01:31:55;9.70;99.90
26224;DHT22;14820;48.682;8.890;2022-10-31T01:34:20;9.70;99.90
26224;DHT22;14820;48.682;8.890;2022-10-31T01:36:46;9.60;99.90
26224;DHT22;14820;48.682;8.890;2022-10-31T01:39:17;9.60;99.90
26224;DHT22;14820;48.682;8.890;2022-10-31T01:41:51;9.70;99.90
26224;DHT22;14820;48.682;8.890;2022-10-31T01:47:03;9.60;99.90
26224;DHT22;14820;48.682;8.890;2022-10-31T01:49:54;9.60;99.90
26224;DHT22;14820;48.682;8.890;2022-10-31T01:52:23;9.50;99.90
26224;DHT22;14820;48.682;8.890;2022-10-31T01:54:58;9.50;99.90
26224;DHT22;14820;48.682;8.890;2022-10-31T01:57:25;9.50;99.90
26224;DHT22;14820;48.682;8.890;2022-10-31T01:59:55;9.50;99.90
26224;DHT22;14820;48.682;8.890;2022-10-31T02:02:23;9.50;99.90
26224;DHT22;14820;48.682;8.890;2022-10-31T02:04:49;9.50;99.90
26224;DHT22;14820;48.682;8.890;2022-10-31T02:07:23;9.40;99.90
26224;DHT22;14820;48.682;8.890;2022-10-31T02:09:51;9.40;99.90
26224;DHT22;14820;48.682;8.890;2022-10-31T02:12:19;9.40;99.90
26224;DHT22;14820;48.682;8.890;2022-10-31T02:14:46;9.50;99.90
26224;DHT22;14820;48.682;8.890;2022-10-31T02:17:12;9.40;99.90
26224;DHT22;14820;48.682;8.890;2022-10-31T02:19:54;9.50;99.90
26224;DHT22;14820;48.682;8.890;2022-10-31T02:30:51;9.40;99.90
26224;DHT22;14820;48.682;8.890;2022-10-31T02:45:19;9.30;99.90
26224;DHT22;14820;48.682;8.890;2022-10-31T02:47:38;9.30;99.90
26224;DHT22;14820;48.682;8.890;2022-10-31T02:52:31;9.20;99.90
26224;DHT22;14820;48.682;8.890;2022-10-31T02:54:57;9.30;99.90
26224;DHT22;14820;48.682;8.890;2022-10-31T02:57:27;9.20;99.90
26224;DHT22;14820;48.682;8.890;2022-10-31T02:59:59;9.20;99.90
26224;DHT22;14820;48.682;8.890;2022-10-31T03:11:01;9.20;99.90
26224;DHT22;14820;48.682;8.890;2022-10-31T03:16:14;9.10;99.90
26224;DHT22;14820;48.682;8.890;2022-10-31T03:21:39;9.10;99.90
26224;DHT22;14820;48.682;8.890;2022-10-31T03:24:08;9.10;99.90
26224;DHT22;14820;48.682;8.890;2022-10-31T03:26:39;9.10;99.90
26224;DHT22;14820;48.682;8.890;2022-10-31T03:29:09;9.10;99.90
26224;DHT22;14820;48.682;8.890;2022-10-31T03:32:00;9.00;99.90
26224;DHT22;14820;48.682;8.890;2022-10-31T03:34:28;9.10;99.90
26224;DHT22;14820;48.682;8.890;2022-10-31T03:36:57;9.10;99.90
26224;DHT22;14820;48.682;8.890;2022-10-31T03:39:23;9.00;99.90
26224;DHT22;14820;48.682;8.890;2022-10-31T03:41:57;9.00;99.90
26224;DHT22;14820;48.682;8.890;2022-10-31T03:44:27;9.00;99.90
26224;DHT22;14820;48.682;8.890;2022-10-31T03:46:54;9.00;99.90
26224;DHT22;14820;48.682;8.890;2022-10-31T03:49:20;9.00;99.90
26224;DHT22;14820;48.682;8.890;2022-10-31T03:54:42;9.00;99.90
26224;DHT22;14820;48.682;8.890;2022-10-31T03:57:27;9.00;99.90
26224;DHT22;14820;48.682;8.890;2022-10-31T04:00:01;8.90;99.90
26224;DHT22;14820;48.682;8.890;2022-10-31T04:02:31;8.90;99.90
26224;DHT22;14820;48.682;8.890;2022-10-31T04:04:58;8.90;99.90
26224;DHT22;14820;48.682;8.890;2022-10-31T04:07:27;8.90;99.90
26224;DHT22;14820;48.682;8.890;2022-10-31T04:09:55;8.90;99.90
26224;DHT22;14820;48.682;8.890;2022-10-31T04:12:23;8.90;99.90
26224;DHT22;14820;48.682;8.890;2022-10-31T04:14:51;8.90;99.90
26224;DHT22;14820;48.682;8.890;2022-10-31T04:17:21;8.90;99.90
26224;DHT22;14820;48.682;8.890;2022-10-31T04:19:47;8.80;99.90
26224;DHT22;14820;48.682;8.890;2022-10-31T04:22:13;8.90;99.90
26224;DHT22;14820;48.682;8.890;2022-10-31T04:24:40;8.90;99.90
26224;DHT22;14820;48.682;8.890;2022-10-31T04:27:06;8.90;99.90
26224;DHT22;14820;48.682;8.890;2022-10-31T04:29:32;8.90;99.90
26224;DHT22;14820;48.682;8.890;2022-10-31T04:31:57;8.90;99.90
26224;DHT22;14820;48.682;8.890;2022-10-31T04:34:23;8.90;99.90
26224;DHT22;14820;48.682;8.890;2022-10-31T04:36:49;8.90;99.90
26224;DHT22;14820;48.682;8.890;2022-10-31T04:39:14;8.90;99.90
26224;DHT22;14820;48.682;8.890;2022-10-31T04:41:40;8.80;99.90
26224;DHT22;14820;48.682;8.890;2022-10-31T04:44:06;8.80;99.90
26224;DHT22;14820;48.682;8.890;2022-10-31T04:46:31;8.80;99.90
26224;DHT22;14820;48.682;8.890;2022-10-31T04:48:57;8.80;99.90
26224;DHT22;14820;48.682;8.890;2022-10-31T04:51:23;8.70;99.90
26224;DHT22;14820;48.682;8.890;2022-10-31T04:53:48;8.80;99.90
26224;DHT22;14820;48.682;8.890;2022-10-31T04:56:14;8.70;99.90
26224;DHT22;14820;48.682;8.890;2022-10-31T04:58:40;8.70;99.90
26224;DHT22;14820;48.682;8.890;2022-10-31T05:01:05;8.70;99.90
26224;DHT22;14820;48.682;8.890;2022-10-31T05:03:31;8.80;99.90
26224;DHT22;14820;48.682;8.890;2022-10-31T05:05:56;8.70;99.90
26224;DHT22;14820;48.682;8.890;2022-10-31T05:08:22;8.70;99.90
26224;DHT22;14820;48.682;8.890;2022-10-31T05:10:48;8.70;99.90
26224;DHT22;14820;48.682;8.890;2022-10-31T05:13:13;8.60;99.90
26224;DHT22;14820;48.682;8.890;2022-10-31T05:15:40;8.60;99.90
26224;DHT22;14820;48.682;8.890;2022-10-31T05:18:06;8.60;99.90
26224;DHT22;14820;48.682;8.890;2022-10-31T05:20:32;8.60;99.90
26224;DHT22;14820;48.682;8.890;2022-10-31T05:22:59;8.60;99.90
26224;DHT22;14820;48.682;8.890;2022-10-31T05:25:26;8.50;99.90
26224;DHT22;14820;48.682;8.890;2022-10-31T05:27:54;8.50;99.90
26224;DHT22;14820;48.682;8.890;2022-10-31T05:30:27;8.50;99.90
26224;DHT22;14820;48.682;8.890;2022-10-31T05:32:53;8.40;99.90
26224;DHT22;14820;48.682;8.890;2022-10-31T05:35:21;8.40;99.90
26224;DHT22;14820;48.682;8.890;2022-10-31T05:37:48;8.40;99.90
26224;DHT22;14820;48.682;8.890;2022-10-31T05:40:15;8.40;99.90
26224;DHT22;14820;48.682;8.890;2022-10-31T05:42:42;8.30;99.90
26224;DHT22;14820;48.682;8.890;2022-10-31T05:45:09;8.40;99.90
26224;DHT22;14820;48.682;8.890;2022-10-31T05:47:35;8.30;99.90
26224;DHT22;14820;48.682;8.890;2022-10-31T05:50:00;8.30;99.90
26224;DHT22;14820;48.682;8.890;2022-10-31T05:52:26;8.40;99.90
26224;DHT22;14820;48.682;8.890;2022-10-31T05:54:52;8.30;99.90
26224;DHT22;14820;48.682;8.890;2022-10-31T05:57:17;8.30;99.90
26224;DHT22;14820;48.682;8.890;2022-10-31T05:59:43;8.30;99.90
26224;DHT22;14820;48.682;8.890;2022-10-31T06:02:09;8.20;99.90
26224;DHT22;14820;48.682;8.890;2022-10-31T06:04:34;8.20;99.90
26224;DHT22;14820;48.682;8.890;2022-10-31T06:07:00;8.20;99.90
26224;DHT22;14820;48.682;8.890;2022-10-31T06:09:26;8.30;99.90
26224;DHT22;14820;48.682;8.890;2022-10-31T06:11:51;8.20;99.90
26224;DHT22;14820;48.682;8.890;2022-10-31T06:14:22;8.20;99.90
26224;DHT22;14820;48.682;8.890;2022-10-31T06:16:54;8.30;99.90
26224;DHT22;14820;48.682;8.890;2022-10-31T06:19:20;8.30;99.90
26224;DHT22;14820;48.682;8.890;2022-10-31T06:21:46;8.30;99.90
26224;DHT22;14820;48.682;8.890;2022-10-31T06:24:12;8.30;99.90
26224;DHT22;14820;48.682;8.890;2022-10-31T06:26:37;8.40;99.90
26224;DHT22;14820;48.682;8.890;2022-10-31T06:29:03;8.30;99.90
26224;DHT22;14820;48.682;8.890;2022-10-31T06:31:29;8.30;99.90
26224;DHT22;14820;48.682;8.890;2022-10-31T06:33:55;8.40;99.90
26224;DHT22;14820;48.682;8.890;2022-10-31T06:36:20;8.40;99.90
26224;DHT22;14820;48.682;8.890;2022-10-31T06:38:46;8.40;99.90
26224;DHT22;14820;48.682;8.890;2022-10-31T06:41:12;8.40;99.90
26224;DHT22;14820;48.682;8.890;2022-10-31T06:43:37;8.40;99.90
26224;DHT22;14820;48.682;8.890;2022-10-31T06:46:04;8.40;99.90
26224;DHT22;14820;48.682;8.890;2022-10-31T06:48:31;8.50;99.90
26224;DHT22;14820;48.682;8.890;2022-10-31T06:51:00;8.50;99.90
26224;DHT22;14820;48.682;8.890;2022-10-31T06:53:26;8.50;99.90
26224;DHT22;14820;48.682;8.890;2022-10-31T06:55:52;8.50;99.90
26224;DHT22;14820;48.682;8.890;2022-10-31T06:58:18;8.50;99.90
26224;DHT22;14820;48.682;8.890;2022-10-31T07:00:43;8.60;99.90
26224;DHT22;14820;48.682;8.890;2022-10-31T07:03:11;8.50;99.90
26224;DHT22;14820;48.682;8.890;2022-10-31T07:05:37;8.60;99.90
26224;DHT22;14820;48.682;8.890;2022-10-31T07:08:07;8.60;99.90
26224;DHT22;14820;48.682;8.890;2022-10-31T07:10:35;8.70;99.90
26224;DHT22;14820;48.682;8.890;2022-10-31T07:13:03;8.70;99.90
26224;DHT22;14820;48.682;8.890;2022-10-31T07:15:34;8.70;99.90
26224;DHT22;14820;48.682;8.890;2022-10-31T07:18:01;8.70;99.90
26224;DHT22;14820;48.682;8.890;2022-10-31T07:20:27;8.70;99.90
26224;DHT22;14820;48.682;8.890;2022-10-31T07:22:53;8.70;99.90
26224;DHT22;14820;48.682;8.890;2022-10-31T07:25:19;8.80;99.90
26224;DHT22;14820;48.682;8.890;2022-10-31T07:27:45;8.80;99.90
26224;DHT22;14820;48.682;8.890;2022-10-31T07:30:12;8.90;99.90
26224;DHT22;14820;48.682;8.890;2022-10-31T07:32:39;8.90;99.90
26224;DHT22;14820;48.682;8.890;2022-10-31T07:35:07;8.90;99.90
26224;DHT22;14820;48.682;8.890;2022-10-31T07:37:33;9.00;99.90
26224;DHT22;14820;48.682;8.890;2022-10-31T07:39:59;9.00;99.90
26224;DHT22;14820;48.682;8.890;2022-10-31T07:42:24;9.10;99.90
26224;DHT22;14820;48.682;8.890;2022-10-31T07:44:50;9.10;99.90
26224;DHT22;14820;48.682;8.890;2022-10-31T07:47:16;9.20;99.90
26224;DHT22;14820;48.682;8.890;2022-10-31T07:49:41;9.20;99.90
26224;DHT22;14820;48.682;8.890;2022-10-31T07:52:07;9.30;99.90
26224;DHT22;14820;48.682;8.890;2022-10-31T07:54:32;9.30;99.90
26224;DHT22;14820;48.682;8.890;2022-10-31T07:56:58;9.40;99.90
26224;DHT22;14820;48.682;8.890;2022-10-31T07:59:24;9.40;99.90
26224;DHT22;14820;48.682;8.890;2022-10-31T08:01:51;9.40;99.90
26224;DHT22;14820;48.682;8.890;2022-10-31T08:04:16;9.50;99.90
26224;DHT22;14820;48.682;8.890;2022-10-31T08:06:42;9.60;99.90
26224;DHT22;14820;48.682;8.890;2022-10-31T08:09:08;9.60;99.90
26224;DHT22;14820;48.682;8.890;2022-10-31T08:11:33;9.70;99.90
26224;DHT22;14820;48.682;8.890;2022-10-31T08:13:59;9.80;99.90
26224;DHT22;14820;48.682;8.890;2022-10-31T08:16:24;9.80;99.90
26224;DHT22;14820;48.682;8.890;2022-10-31T08:18:50;9.90;99.90
26224;DHT22;14820;48.682;8.890;2022-10-31T08:21:16;10.00;99.90
26224;DHT22;14820;48.682;8.890;2022-10-31T08:23:41;10.00;99.90
26224;DHT22;14820;48.682;8.890;2022-10-31T08:26:07;10.10;99.90
26224;DHT22;14820;48.682;8.890;2022-10-31T08:28:33;10.20;99.90
26224;DHT22;14820;48.682;8.890;2022-10-31T08:30:58;10.20;99.90
26224;DHT22;14820;48.682;8.890;2022-10-31T08:33:27;10.30;99.90
26224;DHT22;14820;48.682;8.890;2022-10-31T08:35:53;10.40;99.90
26224;DHT22;14820;48.682;8.890;2022-10-31T08:38:19;10.40;99.90
26224;DHT22;14820;48.682;8.890;2022-10-31T08:40:48;10.50;99.90
26224;DHT22;14820;48.682;8.890;2022-10-31T08:43:15;10.60;99.90
26224;DHT22;14820;48.682;8.890;2022-10-31T08:45:42;10.70;99.90
26224;DHT22;14820;48.682;8.890;2022-10-31T08:48:13;10.70;99.90
26224;DHT22;14820;48.682;8.890;2022-10-31T08:50:39;10.80;99.90
26224;DHT22;14820;48.682;8.890;2022-10-31T08:53:07;10.90;99.90
26224;DHT22;14820;48.682;8.890;2022-10-31T08:55:37;11.00;99.90
26224;DHT22;14820;48.682;8.890;2022-10-31T08:58:12;11.10;99.90
26224;DHT22;14820;48.682;8.890;2022-10-31T09:00:39;11.20;99.90
26224;DHT22;14820;48.682;8.890;2022-10-31T09:03:09;11.30;99.90
26224;DHT22;14820;48.682;8.890;2022-10-31T09:05:35;11.30;99.90
26224;DHT22;14820;48.682;8.890;2022-10-31T09:08:03;11.40;99.90
26224;DHT22;14820;48.682;8.890;2022-10-31T09:10:30;11.50;99.90
26224;DHT22;14820;48.682;8.890;2022-10-31T09:13:00;11.60;99.90
26224;DHT22;14820;48.682;8.890;2022-10-31T09:15:27;11.70;99.90
26224;DHT22;14820;48.682;8.890;2022-10-31T09:17:53;11.80;99.90
26224;DHT22;14820;48.682;8.890;2022-10-31T09:20:19;11.90;99.90
26224;DHT22;14820;48.682;8.890;2022-10-31T09:22:45;12.00;99.90
26224;DHT22;14820;48.682;8.890;2022-10-31T09:25:11;12.00;99.90
26224;DHT22;14820;48.682;8.890;2022-10-31T09:27:37;12.10;99.90
26224;DHT22;14820;48.682;8.890;2022-10-31T09:30:04;12.10;99.90
26224;DHT22;14820;48.682;8.890;2022-10-31T09:32:29;12.30;99.90
26224;DHT22;14820;48.682;8.890;2022-10-31T09:34:55;12.40;99.90
26224;DHT22;14820;48.682;8.890;2022-10-31T09:37:21;12.50;99.90
26224;DHT22;14820;48.682;8.890;2022-10-31T09:39:47;12.50;99.90
26224;DHT22;14820;48.682;8.890;2022-10-31T09:44:50;12.70;99.90
26224;DHT22;14820;48.682;8.890;2022-10-31T09:53:31;12.90;99.90
26224;DHT22;14820;48.682;8.890;2022-10-31T09:55:58;12.90;99.90
26224;DHT22;14820;48.682;8.890;2022-10-31T09:58:29;13.10;99.90
26224;DHT22;14820;48.682;8.890;2022-10-31T10:00:58;13.10;99.90
26224;DHT22;14820;48.682;8.890;2022-10-31T10:03:39;13.20;99.90
26224;DHT22;14820;48.682;8.890;2022-10-31T10:08:34;13.40;99.90
26224;DHT22;14820;48.682;8.890;2022-10-31T10:11:07;13.50;99.90
26224;DHT22;14820;48.682;8.890;2022-10-31T10:16:14;13.70;99.90
26224;DHT22;14820;48.682;8.890;2022-10-31T10:26:44;14.00;99.90
26224;DHT22;14820;48.682;8.890;2022-10-31T10:29:25;14.10;99.90
26224;DHT22;14820;48.682;8.890;2022-10-31T10:32:00;14.20;99.90
26224;DHT22;14820;48.682;8.890;2022-10-31T10:34:32;14.30;99.90
26224;DHT22;14820;48.682;8.890;2022-10-31T10:37:24;14.40;99.90
26224;DHT22;14820;48.682;8.890;2022-10-31T10:40:00;14.50;99.90
26224;DHT22;14820;48.682;8.890;2022-10-31T10:42:28;14.60;99.90
26224;DHT22;14820;48.682;8.890;2022-10-31T10:45:20;14.70;99.90
26224;DHT22;14820;48.682;8.890;2022-10-31T10:48:40;14.80;99.90
26224;DHT22;14820;48.682;8.890;2022-10-31T10:51:15;14.90;99.90
26224;DHT22;14820;48.682;8.890;2022-10-31T10:57:05;15.10;99.90
26224;DHT22;14820;48.682;8.890;2022-10-31T10:59:32;15.20;99.90
26224;DHT22;14820;48.682;8.890;2022-10-31T11:02:03;15.30;99.90
26224;DHT22;14820;48.682;8.890;2022-10-31T11:04:33;15.40;99.90
26224;DHT22;14820;48.682;8.890;2022-10-31T11:09:26;15.50;99.90
26224;DHT22;14820;48.682;8.890;2022-10-31T11:11:56;15.60;99.90
26224;DHT22;14820;48.682;8.890;2022-10-31T11:14:23;15.70;99.90
26224;DHT22;14820;48.682;8.890;2022-10-31T11:16:55;15.70;99.90
26224;DHT22;14820;48.682;8.890;2022-10-31T11:19:27;15.80;99.90
26224;DHT22;14820;48.682;8.890;2022-10-31T11:21:53;15.80;99.90
26224;DHT22;14820;48.682;8.890;2022-10-31T11:24:24;15.90;99.90
26224;DHT22;14820;48.682;8.890;2022-10-31T11:27:08;15.90;99.90
26224;DHT22;14820;48.682;8.890;2022-10-31T11:29:35;16.00;99.90
26224;DHT22;14820;48.682;8.890;2022-10-31T11:32:02;16.00;99.90
26224;DHT22;14820;48.682;8.890;2022-10-31T11:34:44;16.00;99.90
26224;DHT22;14820;48.682;8.890;2022-10-31T11:37:17;16.10;99.90
26224;DHT22;14820;48.682;8.890;2022-10-31T11:39:52;16.10;99.90
26224;DHT22;14820;48.682;8.890;2022-10-31T11:42:22;16.10;99.90
26224;DHT22;14820;48.682;8.890;2022-10-31T11:44:50;16.20;99.90
26224;DHT22;14820;48.682;8.890;2022-10-31T11:47:26;16.20;99.90
26224;DHT22;14820;48.682;8.890;2022-10-31T11:49:53;16.20;99.90
26224;DHT22;14820;48.682;8.890;2022-10-31T11:52:29;16.20;99.90
26224;DHT22;14820;48.682;8.890;2022-10-31T11:55:16;16.20;99.90
26224;DHT22;14820;48.682;8.890;2022-10-31T11:57:43;16.30;99.90
26224;DHT22;14820;48.682;8.890;2022-10-31T12:00:23;16.40;99.90
26224;DHT22;14820;48.682;8.890;2022-10-31T12:02:50;16.40;99.90
26224;DHT22;14820;48.682;8.890;2022-10-31T12:05:26;16.40;99.90
26224;DHT22;14820;48.682;8.890;2022-10-31T12:07:58;16.40;99.90
26224;DHT22;14820;48.682;8.890;2022-10-31T12:10:34;16.50;99.90
26224;DHT22;14820;48.682;8.890;2022-10-31T12:16:04;16.50;99.90
26224;DHT22;14820;48.682;8.890;2022-10-31T12:18:52;16.50;99.90
26224;DHT22;14820;48.682;8.890;2022-10-31T12:30:20;16.50;99.90
26224;DHT22;14820;48.682;8.890;2022-10-31T12:33:17;16.50;99.90
26224;DHT22;14820;48.682;8.890;2022-10-31T12:36:27;16.50;99.90
26224;DHT22;14820;48.682;8.890;2022-10-31T12:42:11;16.50;99.90
26224;DHT22;14820;48.682;8.890;2022-10-31T12:48:21;16.60;99.90
26224;DHT22;14820;48.682;8.890;2022-10-31T13:08:05;16.60;99.90
26224;DHT22;14820;48.682;8.890;2022-10-31T13:10:40;16.70;99.90
26224;DHT22;14820;48.682;8.890;2022-10-31T13:13:43;16.70;99.90
26224;DHT22;14820;48.682;8.890;2022-10-31T13:16:18;16.80;99.90
26224;DHT22;14820;48.682;8.890;2022-10-31T13:27:33;17.20;99.90
26224;DHT22;14820;48.682;8.890;2022-10-31T13:30:21;17.30;99.90
26224;DHT22;14820;48.682;8.890;2022-10-31T13:33:04;17.40;99.90
26224;DHT22;14820;48.682;8.890;2022-10-31T13:38:38;17.40;99.90
26224;DHT22;14820;48.682;8.890;2022-10-31T13:46:44;17.30;99.90
26224;DHT22;14820;48.682;8.890;2022-10-31T13:54:49;17.30;99.90
26224;DHT22;14820;48.682;8.890;2022-10-31T13:57:34;17.30;99.90
26224;DHT22;14820;48.682;8.890;2022-10-31T14:02:50;17.40;99.90
26224;DHT22;14820;48.682;8.890;2022-10-31T14:05:30;17.50;99.90
26224;DHT22;14820;48.682;8.890;2022-10-31T14:07:58;17.60;99.90
26224;DHT22;14820;48.682;8.890;2022-10-31T14:10:28;17.80;99.90
26224;DHT22;14820;48.682;8.890;2022-10-31T14:15:32;18.00;99.90
26224;DHT22;14820;48.682;8.890;2022-10-31T14:18:06;18.10;99.90
26224;DHT22;14820;48.682;8.890;2022-10-31T14:20:50;18.30;99.90
26224;DHT22;14820;48.682;8.890;2022-10-31T14:26:20;18.30;99.90
26224;DHT22;14820;48.682;8.890;2022-10-31T14:28:48;18.30;99.90
26224;DHT22;14820;48.682;8.890;2022-10-31T14:31:39;18.30;99.90
26224;DHT22;14820;48.682;8.890;2022-10-31T14:34:20;18.20;99.90
26224;DHT22;14820;48.682;8.890;2022-10-31T14:42:35;18.00;99.90
26224;DHT22;14820;48.682;8.890;2022-10-31T14:45:48;18.00;99.90
26224;DHT22;14820;48.682;8.890;2022-10-31T14:48:08;17.90;99.90
26224;DHT22;14820;48.682;8.890;2022-10-31T14:56:11;17.70;99.90
26224;DHT22;14820;48.682;8.890;2022-10-31T14:58:40;17.60;99.90
26224;DHT22;14820;48.682;8.890;2022-10-31T15:03:50;17.50;99.90
26224;DHT22;14820;48.682;8.890;2022-10-31T15:06:20;17.40;99.90
26224;DHT22;14820;48.682;8.890;2022-10-31T15:08:52;17.40;99.90
26224;DHT22;14820;48.682;8.890;2022-10-31T15:11:21;17.30;99.90
26224;DHT22;14820;48.682;8.890;2022-10-31T15:13:57;17.30;99.90
26224;DHT22;14820;48.682;8.890;2022-10-31T15:16:34;17.20;99.90
26224;DHT22;14820;48.682;8.890;2022-10-31T15:19:22;17.20;99.90
26224;DHT22;14820;48.682;8.890;2022-10-31T15:21:51;17.10;99.90
26224;DHT22;14820;48.682;8.890;2022-10-31T15:24:20;17.00;99.90
26224;DHT22;14820;48.682;8.890;2022-10-31T15:26:50;17.00;99.90
26224;DHT22;14820;48.682;8.890;2022-10-31T15:29:19;16.90;99.90
26224;DHT22;14820;48.682;8.890;2022-10-31T15:31:52;16.90;99.90
26224;DHT22;14820;48.682;8.890;2022-10-31T15:34:40;16.80;99.90
26224;DHT22;14820;48.682;8.890;2022-10-31T15:37:12;16.80;99.90
26224;DHT22;14820;48.682;8.890;2022-10-31T15:39:42;16.70;99.90
26224;DHT22;14820;48.682;8.890;2022-10-31T15:42:35;16.70;99.90
26224;DHT22;14820;48.682;8.890;2022-10-31T15:47:35;16.60;99.90
26224;DHT22;14820;48.682;8.890;2022-10-31T15:50:02;16.60;99.90
26224;DHT22;14820;48.682;8.890;2022-10-31T15:52:42;16.50;99.90
26224;DHT22;14820;48.682;8.890;2022-10-31T15:57:40;16.40;99.90
26224;DHT22;14820;48.682;8.890;2022-10-31T16:00:27;16.30;99.90
26224;DHT22;14820;48.682;8.890;2022-10-31T16:05:49;16.20;99.90
26224;DHT22;14820;48.682;8.890;2022-10-31T16:08:32;16.10;99.90
26224;DHT22;14820;48.682;8.890;2022-10-31T16:13:33;15.90;99.90
26224;DHT22;14820;48.682;8.890;2022-10-31T16:16:02;15.80;99.90
26224;DHT22;14820;48.682;8.890;2022-10-31T16:18:34;15.70;99.90
26224;DHT22;14820;48.682;8.890;2022-10-31T16:21:00;15.60;99.90
26224;DHT22;14820;48.682;8.890;2022-10-31T16:23:27;15.50;99.90
26224;DHT22;14820;48.682;8.890;2022-10-31T16:25:53;15.40;99.90
26224;DHT22;14820;48.682;8.890;2022-10-31T16:28:24;15.40;99.90
26224;DHT22;14820;48.682;8.890;2022-10-31T16:30:57;15.30;99.90
26224;DHT22;14820;48.682;8.890;2022-10-31T16:33:34;15.10;99.90
26224;DHT22;14820;48.682;8.890;2022-10-31T16:38:59;15.00;99.90
26224;DHT22;14820;48.682;8.890;2022-10-31T16:41:28;14.90;99.90
26224;DHT22;14820;48.682;8.890;2022-10-31T16:43:55;14.80;99.90
26224;DHT22;14820;48.682;8.890;2022-10-31T16:46:26;14.80;99.90
26224;DHT22;14820;48.682;8.890;2022-10-31T16:48:53;14.70;99.90
26224;DHT22;14820;48.682;8.890;2022-10-31T16:51:22;14.60;99.90
26224;DHT22;14820;48.682;8.890;2022-10-31T16:53:51;14.60;99.90
26224;DHT22;14820;48.682;8.890;2022-10-31T16:56:27;14.50;99.90
26224;DHT22;14820;48.682;8.890;2022-10-31T16:58:53;14.50;99.90
26224;DHT22;14820;48.682;8.890;2022-10-31T17:01:19;14.40;99.90
26224;DHT22;14820;48.682;8.890;2022-10-31T17:03:48;14.40;99.90
26224;DHT22;14820;48.682;8.890;2022-10-31T17:06:19;14.30;99.90
26224;DHT22;14820;48.682;8.890;2022-10-31T17:08:48;14.20;99.90
26224;DHT22;14820;48.682;8.890;2022-10-31T17:11:21;14.20;99.90
26224;DHT22;14820;48.682;8.890;2022-10-31T17:13:49;14.20;99.90
26224;DHT22;14820;48.682;8.890;2022-10-31T17:16:17;14.10;99.90
26224;DHT22;14820;48.682;8.890;2022-10-31T17:18:44;14.10;99.90
26224;DHT22;14820;48.682;8.890;2022-10-31T17:21:20;14.00;99.90
26224;DHT22;14820;48.682;8.890;2022-10-31T17:23:50;14.00;99.90
26224;DHT22;14820;48.682;8.890;2022-10-31T17:26:18;14.00;99.90
26224;DHT22;14820;48.682;8.890;2022-10-31T17:28:48;14.00;99.90
26224;DHT22;14820;48.682;8.890;2022-10-31T17:31:20;13.90;99.90
26224;DHT22;14820;48.682;8.890;2022-10-31T17:33:47;13.80;99.90
26224;DHT22;14820;48.682;8.890;2022-10-31T17:36:16;13.80;99.90
26224;DHT22;14820;48.682;8.890;2022-10-31T17:38:41;13.80;99.90
26224;DHT22;14820;48.682;8.890;2022-10-31T17:41:07;13.80;99.90
26224;DHT22;14820;48.682;8.890;2022-10-31T17:43:34;13.70;99.90
26224;DHT22;14820;48.682;8.890;2022-10-31T17:46:00;13.80;99.90
26224;DHT22;14820;48.682;8.890;2022-10-31T17:48:27;13.70;99.90
26224;DHT22;14820;48.682;8.890;2022-10-31T17:50:53;13.70;99.90
26224;DHT22;14820;48.682;8.890;2022-10-31T17:53:22;13.60;99.90
26224;DHT22;14820;48.682;8.890;2022-10-31T17:55:47;13.60;99.90
26224;DHT22;14820;48.682;8.890;2022-10-31T17:58:13;13.50;99.90
26224;DHT22;14820;48.682;8.890;2022-10-31T18:00:40;13.50;99.90
26224;DHT22;14820;48.682;8.890;2022-10-31T18:03:07;13.40;99.90
26224;DHT22;14820;48.682;8.890;2022-10-31T18:05:33;13.40;99.90
26224;DHT22;14820;48.682;8.890;2022-10-31T18:07:59;13.50;99.90
26224;DHT22;14820;48.682;8.890;2022-10-31T18:10:25;13.50;99.90
26224;DHT22;14820;48.682;8.890;2022-10-31T18:12:51;13.30;99.90
26224;DHT22;14820;48.682;8.890;2022-10-31T18:15:17;13.30;99.90
26224;DHT22;14820;48.682;8.890;2022-10-31T18:17:43;13.20;99.90
26224;DHT22;14820;48.682;8.890;2022-10-31T18:20:10;13.20;99.90
26224;DHT22;14820;48.682;8.890;2022-10-31T18:22:36;13.20;99.90
26224;DHT22;14820;48.682;8.890;2022-10-31T18:25:02;13.10;99.90
26224;DHT22;14820;48.682;8.890;2022-10-31T18:27:28;13.00;99.90
26224;DHT22;14820;48.682;8.890;2022-10-31T18:29:53;13.00;99.90
26224;DHT22;14820;48.682;8.890;2022-10-31T18:32:19;13.00;99.90
26224;DHT22;14820;48.682;8.890;2022-10-31T18:34:45;13.00;99.90
26224;DHT22;14820;48.682;8.890;2022-10-31T18:37:10;13.00;99.90